sensor_id;sensor_type;location;lat;lon;timestamp;P1;durP1;ratioP1;P2;durP2;ratioP2
19329;SDS011;9799;48.214;16.388;2023-06-26T00:01:34;10.00;;;8.88;;
19329;SDS011;9799;48.214;16.388;2023-06-26T00:04:55;9.43;;;8.52;;
19329;SDS011;9799;48.214;16.388;2023-06-26T00:08:18;9.40;;;8.32;;
19329;SDS011;9799;48.214;16.388;2023-06-26T00:11:39;9.07;;;8.20;;
19329;SDS011;9799;48.214;16.388;2023-06-26T00:15:00;8.20;;;7.50;;
19329;SDS011;9799;48.214;16.388;2023-06-26T00:18:22;9.32;;;8.40;;
19329;SDS011;9799;48.214;16.388;2023-06-26T00:21:43;10.68;;;7.88;;
19329;SDS011;9799;48.214;16.388;2023-06-26T00:25:07;11.05;;;8.20;;
19329;SDS011;9799;48.214;16.388;2023-06-26T00:28:28;8.98;;;8.07;;
19329;SDS011;9799;48.214;16.388;2023-06-26T00:31:49;9.32;;;8.43;;
19329;SDS011;9799;48.214;16.388;2023-06-26T00:35:11;8.73;;;7.85;;
19329;SDS011;9799;48.214;16.388;2023-06-26T00:38:31;15.10;;;7.68;;
19329;SDS011;9799;48.214;16.388;2023-06-26T00:41:54;9.43;;;7.90;;
19329;SDS011;9799;48.214;16.388;2023-06-26T00:45:15;7.97;;;7.18;;
19329;SDS011;9799;48.214;16.388;2023-06-26T00:48:37;9.45;;;8.45;;
19329;SDS011;9799;48.214;16.388;2023-06-26T00:51:58;8.43;;;6.97;;
19329;SDS011;9799;48.214;16.388;2023-06-26T00:55:20;8.32;;;7.28;;
19329;SDS011;9799;48.214;16.388;2023-06-26T00:58:42;10.25;;;7.50;;
19329;SDS011;9799;48.214;16.388;2023-06-26T01:02:04;8.40;;;7.40;;
19329;SDS011;9799;48.214;16.388;2023-06-26T01:05:25;7.28;;;6.55;;
19329;SDS011;9799;48.214;16.388;2023-06-26T01:08:47;8.52;;;7.53;;
19329;SDS011;9799;48.214;16.388;2023-06-26T01:12:09;8.15;;;7.35;;
19329;SDS011;9799;48.214;16.388;2023-06-26T01:15:31;8.02;;;6.68;;
19329;SDS011;9799;48.214;16.388;2023-06-26T01:18:52;7.50;;;6.80;;
19329;SDS011;9799;48.214;16.388;2023-06-26T01:22:16;7.07;;;6.38;;
19329;SDS011;9799;48.214;16.388;2023-06-26T01:25:52;8.73;;;7.35;;
19329;SDS011;9799;48.214;16.388;2023-06-26T01:29:23;7.43;;;6.72;;
19329;SDS011;9799;48.214;16.388;2023-06-26T01:32:45;7.03;;;6.40;;
19329;SDS011;9799;48.214;16.388;2023-06-26T01:36:08;7.82;;;6.88;;
19329;SDS011;9799;48.214;16.388;2023-06-26T01:39:30;9.40;;;6.72;;
19329;SDS011;9799;48.214;16.388;2023-06-26T01:42:51;9.50;;;7.22;;
19329;SDS011;9799;48.214;16.388;2023-06-26T01:46:16;7.13;;;6.43;;
19329;SDS011;9799;48.214;16.388;2023-06-26T01:49:44;10.50;;;7.35;;
19329;SDS011;9799;48.214;16.388;2023-06-26T01:53:10;8.05;;;6.65;;
19329;SDS011;9799;48.214;16.388;2023-06-26T01:56:33;8.80;;;7.15;;
19329;SDS011;9799;48.214;16.388;2023-06-26T01:59:55;7.88;;;7.07;;
19329;SDS011;9799;48.214;16.388;2023-06-26T02:03:19;7.53;;;6.82;;
19329;SDS011;9799;48.214;16.388;2023-06-26T02:06:43;9.05;;;8.15;;
19329;SDS011;9799;48.214;16.388;2023-06-26T02:10:05;8.48;;;7.68;;
19329;SDS011;9799;48.214;16.388;2023-06-26T02:13:27;9.40;;;7.95;;
19329;SDS011;9799;48.214;16.388;2023-06-26T02:16:48;8.75;;;7.85;;
19329;SDS011;9799;48.214;16.388;2023-06-26T02:20:11;8.60;;;7.70;;
19329;SDS011;9799;48.214;16.388;2023-06-26T02:23:32;7.95;;;7.15;;
19329;SDS011;9799;48.214;16.388;2023-06-26T02:26:53;8.77;;;6.78;;
19329;SDS011;9799;48.214;16.388;2023-06-26T02:30:14;9.43;;;7.22;;
19329;SDS011;9799;48.214;16.388;2023-06-26T02:33:36;7.50;;;6.57;;
19329;SDS011;9799;48.214;16.388;2023-06-26T02:36:59;7.78;;;6.97;;
19329;SDS011;9799;48.214;16.388;2023-06-26T02:40:21;6.93;;;6.22;;
19329;SDS011;9799;48.214;16.388;2023-06-26T02:43:42;6.90;;;6.18;;
19329;SDS011;9799;48.214;16.388;2023-06-26T02:47:03;7.07;;;6.38;;
19329;SDS011;9799;48.214;16.388;2023-06-26T02:50:24;7.88;;;6.88;;
19329;SDS011;9799;48.214;16.388;2023-06-26T02:53:47;12.02;;;7.30;;
19329;SDS011;9799;48.214;16.388;2023-06-26T02:57:08;7.07;;;6.38;;
19329;SDS011;9799;48.214;16.388;2023-06-26T03:00:29;8.07;;;6.88;;
19329;SDS011;9799;48.214;16.388;2023-06-26T03:03:50;8.13;;;7.32;;
19329;SDS011;9799;48.214;16.388;2023-06-26T03:07:12;10.73;;;7.10;;
19329;SDS011;9799;48.214;16.388;2023-06-26T03:10:34;7.63;;;6.85;;
19329;SDS011;9799;48.214;16.388;2023-06-26T03:13:56;7.55;;;6.70;;
19329;SDS011;9799;48.214;16.388;2023-06-26T03:17:17;6.80;;;6.18;;
19329;SDS011;9799;48.214;16.388;2023-06-26T03:20:38;9.02;;;7.10;;
19329;SDS011;9799;48.214;16.388;2023-06-26T03:23:59;10.13;;;6.88;;
19329;SDS011;9799;48.214;16.388;2023-06-26T03:27:22;6.70;;;6.00;;
19329;SDS011;9799;48.214;16.388;2023-06-26T03:30:43;7.55;;;6.30;;
19329;SDS011;9799;48.214;16.388;2023-06-26T03:34:04;7.20;;;6.57;;
19329;SDS011;9799;48.214;16.388;2023-06-26T03:37:25;9.20;;;7.45;;
19329;SDS011;9799;48.214;16.388;2023-06-26T03:40:46;7.22;;;6.50;;
19329;SDS011;9799;48.214;16.388;2023-06-26T03:44:09;7.63;;;6.85;;
19329;SDS011;9799;48.214;16.388;2023-06-26T03:47:30;9.57;;;7.70;;
19329;SDS011;9799;48.214;16.388;2023-06-26T03:50:51;6.80;;;6.20;;
19329;SDS011;9799;48.214;16.388;2023-06-26T03:54:12;8.75;;;7.88;;
19329;SDS011;9799;48.214;16.388;2023-06-26T03:57:33;10.93;;;6.75;;
19329;SDS011;9799;48.214;16.388;2023-06-26T04:00:56;8.35;;;7.53;;
19329;SDS011;9799;48.214;16.388;2023-06-26T04:04:17;9.32;;;7.00;;
19329;SDS011;9799;48.214;16.388;2023-06-26T04:07:38;7.53;;;6.70;;
19329;SDS011;9799;48.214;16.388;2023-06-26T04:10:59;9.27;;;7.60;;
19329;SDS011;9799;48.214;16.388;2023-06-26T04:14:21;8.65;;;7.18;;
19329;SDS011;9799;48.214;16.388;2023-06-26T04:17:43;8.45;;;7.38;;
19329;SDS011;9799;48.214;16.388;2023-06-26T04:21:06;11.75;;;7.60;;
19329;SDS011;9799;48.214;16.388;2023-06-26T04:24:28;10.98;;;7.95;;
19329;SDS011;9799;48.214;16.388;2023-06-26T04:27:49;8.55;;;7.40;;
19329;SDS011;9799;48.214;16.388;2023-06-26T04:31:10;11.38;;;8.95;;
19329;SDS011;9799;48.214;16.388;2023-06-26T04:34:33;11.27;;;8.15;;
19329;SDS011;9799;48.214;16.388;2023-06-26T04:37:55;12.52;;;11.18;;
19329;SDS011;9799;48.214;16.388;2023-06-26T04:41:16;8.40;;;7.60;;
19329;SDS011;9799;48.214;16.388;2023-06-26T04:44:37;10.77;;;8.82;;
19329;SDS011;9799;48.214;16.388;2023-06-26T04:48:00;11.52;;;8.20;;
19329;SDS011;9799;48.214;16.388;2023-06-26T04:51:22;11.13;;;8.05;;
19329;SDS011;9799;48.214;16.388;2023-06-26T04:54:44;13.45;;;7.93;;
19329;SDS011;9799;48.214;16.388;2023-06-26T04:58:05;10.25;;;7.93;;
19329;SDS011;9799;48.214;16.388;2023-06-26T05:01:26;8.73;;;7.70;;
19329;SDS011;9799;48.214;16.388;2023-06-26T05:04:48;9.18;;;7.10;;
19329;SDS011;9799;48.214;16.388;2023-06-26T05:08:14;11.98;;;8.48;;
19329;SDS011;9799;48.214;16.388;2023-06-26T05:11:36;11.13;;;8.20;;
19329;SDS011;9799;48.214;16.388;2023-06-26T05:14:58;7.30;;;6.63;;
19329;SDS011;9799;48.214;16.388;2023-06-26T05:18:19;8.85;;;7.35;;
19329;SDS011;9799;48.214;16.388;2023-06-26T05:21:40;8.68;;;7.78;;
19329;SDS011;9799;48.214;16.388;2023-06-26T05:25:03;7.70;;;6.90;;
19329;SDS011;9799;48.214;16.388;2023-06-26T05:28:26;9.85;;;8.07;;
19329;SDS011;9799;48.214;16.388;2023-06-26T05:31:50;9.98;;;7.35;;
19329;SDS011;9799;48.214;16.388;2023-06-26T05:35:13;9.00;;;7.40;;
19329;SDS011;9799;48.214;16.388;2023-06-26T05:38:36;8.48;;;7.68;;
19329;SDS011;9799;48.214;16.388;2023-06-26T05:41:59;10.25;;;7.55;;
19329;SDS011;9799;48.214;16.388;2023-06-26T05:45:20;8.23;;;7.43;;
19329;SDS011;9799;48.214;16.388;2023-06-26T05:48:42;9.68;;;7.60;;
19329;SDS011;9799;48.214;16.388;2023-06-26T05:52:03;7.28;;;6.57;;
19329;SDS011;9799;48.214;16.388;2023-06-26T05:55:25;10.07;;;7.72;;
19329;SDS011;9799;48.214;16.388;2023-06-26T05:58:48;7.45;;;6.75;;
19329;SDS011;9799;48.214;16.388;2023-06-26T06:02:11;6.90;;;6.30;;
19329;SDS011;9799;48.214;16.388;2023-06-26T06:05:32;7.70;;;6.68;;
19329;SDS011;9799;48.214;16.388;2023-06-26T06:08:53;7.35;;;6.65;;
19329;SDS011;9799;48.214;16.388;2023-06-26T06:12:14;9.35;;;7.22;;
19329;SDS011;9799;48.214;16.388;2023-06-26T06:15:37;7.32;;;6.25;;
19329;SDS011;9799;48.214;16.388;2023-06-26T06:18:58;9.45;;;7.18;;
19329;SDS011;9799;48.214;16.388;2023-06-26T06:22:19;8.90;;;6.50;;
19329;SDS011;9799;48.214;16.388;2023-06-26T06:25:40;6.85;;;6.18;;
19329;SDS011;9799;48.214;16.388;2023-06-26T06:29:02;8.52;;;6.60;;
19329;SDS011;9799;48.214;16.388;2023-06-26T06:32:24;7.30;;;5.80;;
19329;SDS011;9799;48.214;16.388;2023-06-26T06:35:45;10.70;;;6.97;;
19329;SDS011;9799;48.214;16.388;2023-06-26T06:39:06;8.70;;;6.30;;
19329;SDS011;9799;48.214;16.388;2023-06-26T06:42:28;7.70;;;6.88;;
19329;SDS011;9799;48.214;16.388;2023-06-26T06:45:49;7.13;;;6.20;;
19329;SDS011;9799;48.214;16.388;2023-06-26T06:49:11;7.65;;;6.53;;
19329;SDS011;9799;48.214;16.388;2023-06-26T06:52:32;7.00;;;6.00;;
19329;SDS011;9799;48.214;16.388;2023-06-26T06:55:55;7.07;;;6.40;;
19329;SDS011;9799;48.214;16.388;2023-06-26T06:59:16;6.85;;;6.25;;
19329;SDS011;9799;48.214;16.388;2023-06-26T07:02:37;8.48;;;6.43;;
19329;SDS011;9799;48.214;16.388;2023-06-26T07:06:01;8.63;;;6.05;;
19329;SDS011;9799;48.214;16.388;2023-06-26T07:09:22;7.43;;;6.28;;
19329;SDS011;9799;48.214;16.388;2023-06-26T07:12:43;7.07;;;6.38;;
19329;SDS011;9799;48.214;16.388;2023-06-26T07:16:05;6.55;;;5.75;;
19329;SDS011;9799;48.214;16.388;2023-06-26T07:19:26;7.50;;;6.55;;
19329;SDS011;9799;48.214;16.388;2023-06-26T07:22:48;6.22;;;5.63;;
19329;SDS011;9799;48.214;16.388;2023-06-26T07:26:10;6.57;;;5.97;;
19329;SDS011;9799;48.214;16.388;2023-06-26T07:29:34;7.73;;;6.93;;
19329;SDS011;9799;48.214;16.388;2023-06-26T07:32:55;7.55;;;6.85;;
19329;SDS011;9799;48.214;16.388;2023-06-26T07:36:16;6.68;;;5.97;;
19329;SDS011;9799;48.214;16.388;2023-06-26T07:39:39;7.25;;;5.90;;
19329;SDS011;9799;48.214;16.388;2023-06-26T07:43:00;6.43;;;5.82;;
19329;SDS011;9799;48.214;16.388;2023-06-26T07:46:21;8.50;;;5.45;;
19329;SDS011;9799;48.214;16.388;2023-06-26T07:49:42;6.25;;;5.30;;
19329;SDS011;9799;48.214;16.388;2023-06-26T07:53:03;5.38;;;4.88;;
19329;SDS011;9799;48.214;16.388;2023-06-26T07:56:26;6.00;;;5.30;;
19329;SDS011;9799;48.214;16.388;2023-06-26T07:59:47;6.78;;;6.03;;
19329;SDS011;9799;48.214;16.388;2023-06-26T08:03:08;5.88;;;5.38;;
19329;SDS011;9799;48.214;16.388;2023-06-26T08:06:30;5.35;;;4.85;;
19329;SDS011;9799;48.214;16.388;2023-06-26T08:09:51;8.80;;;7.68;;
19329;SDS011;9799;48.214;16.388;2023-06-26T08:13:13;5.05;;;4.57;;
19329;SDS011;9799;48.214;16.388;2023-06-26T08:16:35;6.70;;;5.30;;
19329;SDS011;9799;48.214;16.388;2023-06-26T08:19:56;8.82;;;4.78;;
19329;SDS011;9799;48.214;16.388;2023-06-26T08:23:17;6.20;;;5.60;;
19329;SDS011;9799;48.214;16.388;2023-06-26T08:26:39;5.22;;;4.32;;
19329;SDS011;9799;48.214;16.388;2023-06-26T08:30:01;6.30;;;5.68;;
19329;SDS011;9799;48.214;16.388;2023-06-26T08:33:24;8.02;;;7.28;;
19329;SDS011;9799;48.214;16.388;2023-06-26T08:36:45;6.50;;;5.90;;
19329;SDS011;9799;48.214;16.388;2023-06-26T08:40:07;5.88;;;5.28;;
19329;SDS011;9799;48.214;16.388;2023-06-26T08:43:28;7.88;;;5.43;;
19329;SDS011;9799;48.214;16.388;2023-06-26T08:46:51;7.85;;;5.85;;
19329;SDS011;9799;48.214;16.388;2023-06-26T08:50:13;6.53;;;5.93;;
19329;SDS011;9799;48.214;16.388;2023-06-26T08:53:37;6.45;;;5.60;;
19329;SDS011;9799;48.214;16.388;2023-06-26T08:57:04;6.43;;;5.82;;
19329;SDS011;9799;48.214;16.388;2023-06-26T09:00:27;7.75;;;6.13;;
19329;SDS011;9799;48.214;16.388;2023-06-26T09:03:50;7.35;;;5.35;;
19329;SDS011;9799;48.214;16.388;2023-06-26T09:07:12;6.93;;;5.90;;
19329;SDS011;9799;48.214;16.388;2023-06-26T09:10:33;8.98;;;5.40;;
19329;SDS011;9799;48.214;16.388;2023-06-26T09:13:55;6.57;;;5.97;;
19329;SDS011;9799;48.214;16.388;2023-06-26T09:17:16;7.13;;;6.43;;
19329;SDS011;9799;48.214;16.388;2023-06-26T09:20:38;6.35;;;5.75;;
19329;SDS011;9799;48.214;16.388;2023-06-26T09:23:59;5.93;;;5.43;;
19329;SDS011;9799;48.214;16.388;2023-06-26T09:27:21;6.35;;;5.85;;
19329;SDS011;9799;48.214;16.388;2023-06-26T09:30:43;7.18;;;6.47;;
19329;SDS011;9799;48.214;16.388;2023-06-26T09:34:06;10.00;;;9.00;;
19329;SDS011;9799;48.214;16.388;2023-06-26T09:37:28;7.70;;;6.97;;
19329;SDS011;9799;48.214;16.388;2023-06-26T09:40:50;9.38;;;6.68;;
19329;SDS011;9799;48.214;16.388;2023-06-26T09:44:11;6.40;;;5.80;;
19329;SDS011;9799;48.214;16.388;2023-06-26T09:47:34;7.85;;;6.63;;
19329;SDS011;9799;48.214;16.388;2023-06-26T09:50:55;6.88;;;6.15;;
19329;SDS011;9799;48.214;16.388;2023-06-26T09:54:18;6.82;;;6.22;;
19329;SDS011;9799;48.214;16.388;2023-06-26T09:57:42;6.70;;;6.10;;
19329;SDS011;9799;48.214;16.388;2023-06-26T10:01:04;8.85;;;5.68;;
19329;SDS011;9799;48.214;16.388;2023-06-26T10:04:26;6.90;;;6.18;;
19329;SDS011;9799;48.214;16.388;2023-06-26T10:07:48;7.28;;;6.57;;
19329;SDS011;9799;48.214;16.388;2023-06-26T10:11:12;6.35;;;5.68;;
19329;SDS011;9799;48.214;16.388;2023-06-26T10:14:37;6.95;;;6.35;;
19329;SDS011;9799;48.214;16.388;2023-06-26T10:17:59;6.43;;;5.75;;
19329;SDS011;9799;48.214;16.388;2023-06-26T10:21:22;6.60;;;6.00;;
19329;SDS011;9799;48.214;16.388;2023-06-26T10:24:43;10.52;;;6.97;;
19329;SDS011;9799;48.214;16.388;2023-06-26T10:28:09;6.00;;;5.50;;
19329;SDS011;9799;48.214;16.388;2023-06-26T10:31:32;7.20;;;6.18;;
19329;SDS011;9799;48.214;16.388;2023-06-26T10:34:54;7.82;;;6.63;;
19329;SDS011;9799;48.214;16.388;2023-06-26T10:38:16;6.05;;;5.55;;
19329;SDS011;9799;48.214;16.388;2023-06-26T10:41:38;6.32;;;5.82;;
19329;SDS011;9799;48.214;16.388;2023-06-26T10:45:10;8.27;;;6.05;;
19329;SDS011;9799;48.214;16.388;2023-06-26T10:48:34;7.53;;;4.90;;
19329;SDS011;9799;48.214;16.388;2023-06-26T10:52:19;6.22;;;5.55;;
19329;SDS011;9799;48.214;16.388;2023-06-26T10:55:41;6.55;;;5.93;;
19329;SDS011;9799;48.214;16.388;2023-06-26T10:59:10;14.13;;;5.97;;
19329;SDS011;9799;48.214;16.388;2023-06-26T11:02:48;7.20;;;4.82;;
19329;SDS011;9799;48.214;16.388;2023-06-26T11:06:10;5.65;;;5.05;;
19329;SDS011;9799;48.214;16.388;2023-06-26T11:09:32;6.25;;;5.70;;
19329;SDS011;9799;48.214;16.388;2023-06-26T11:13:14;8.60;;;5.70;;
19329;SDS011;9799;48.214;16.388;2023-06-26T11:16:37;5.28;;;4.72;;
19329;SDS011;9799;48.214;16.388;2023-06-26T11:20:00;5.88;;;5.28;;
19329;SDS011;9799;48.214;16.388;2023-06-26T11:23:22;5.47;;;4.82;;
19329;SDS011;9799;48.214;16.388;2023-06-26T11:26:45;5.25;;;4.75;;
19329;SDS011;9799;48.214;16.388;2023-06-26T11:30:07;6.00;;;5.40;;
19329;SDS011;9799;48.214;16.388;2023-06-26T11:33:29;5.50;;;5.00;;
19329;SDS011;9799;48.214;16.388;2023-06-26T11:36:52;6.50;;;5.35;;
19329;SDS011;9799;48.214;16.388;2023-06-26T11:40:16;7.78;;;5.05;;
19329;SDS011;9799;48.214;16.388;2023-06-26T11:43:38;7.20;;;5.32;;
19329;SDS011;9799;48.214;16.388;2023-06-26T11:47:03;7.22;;;5.65;;
19329;SDS011;9799;48.214;16.388;2023-06-26T11:50:26;7.97;;;5.63;;
19329;SDS011;9799;48.214;16.388;2023-06-26T11:53:48;5.70;;;5.20;;
19329;SDS011;9799;48.214;16.388;2023-06-26T11:57:13;5.85;;;5.32;;
19329;SDS011;9799;48.214;16.388;2023-06-26T12:00:34;5.70;;;5.20;;
19329;SDS011;9799;48.214;16.388;2023-06-26T12:03:58;6.00;;;4.75;;
19329;SDS011;9799;48.214;16.388;2023-06-26T12:07:20;5.45;;;4.93;;
19329;SDS011;9799;48.214;16.388;2023-06-26T12:10:43;5.82;;;5.25;;
19329;SDS011;9799;48.214;16.388;2023-06-26T12:14:06;5.60;;;4.97;;
19329;SDS011;9799;48.214;16.388;2023-06-26T12:17:27;5.43;;;4.93;;
19329;SDS011;9799;48.214;16.388;2023-06-26T12:20:48;5.18;;;4.68;;
19329;SDS011;9799;48.214;16.388;2023-06-26T12:24:12;5.22;;;4.72;;
19329;SDS011;9799;48.214;16.388;2023-06-26T12:27:35;6.40;;;4.65;;
19329;SDS011;9799;48.214;16.388;2023-06-26T12:31:12;5.35;;;4.85;;
19329;SDS011;9799;48.214;16.388;2023-06-26T12:34:35;5.30;;;4.80;;
19329;SDS011;9799;48.214;16.388;2023-06-26T12:37:58;4.72;;;4.32;;
19329;SDS011;9799;48.214;16.388;2023-06-26T12:41:19;5.20;;;4.70;;
19329;SDS011;9799;48.214;16.388;2023-06-26T12:44:42;6.10;;;5.38;;
19329;SDS011;9799;48.214;16.388;2023-06-26T12:48:10;5.32;;;4.82;;
19329;SDS011;9799;48.214;16.388;2023-06-26T12:51:33;5.72;;;5.13;;
19329;SDS011;9799;48.214;16.388;2023-06-26T12:54:54;6.25;;;5.65;;
19329;SDS011;9799;48.214;16.388;2023-06-26T12:58:17;5.55;;;5.05;;
19329;SDS011;9799;48.214;16.388;2023-06-26T13:01:39;5.60;;;5.10;;
19329;SDS011;9799;48.214;16.388;2023-06-26T13:05:00;7.28;;;5.57;;
19329;SDS011;9799;48.214;16.388;2023-06-26T13:08:21;6.25;;;5.22;;
19329;SDS011;9799;48.214;16.388;2023-06-26T13:11:43;6.57;;;5.45;;
19329;SDS011;9799;48.214;16.388;2023-06-26T13:15:04;5.70;;;5.05;;
19329;SDS011;9799;48.214;16.388;2023-06-26T13:18:28;6.28;;;5.22;;
19329;SDS011;9799;48.214;16.388;2023-06-26T13:21:49;5.80;;;5.30;;
19329;SDS011;9799;48.214;16.388;2023-06-26T13:25:10;5.82;;;5.32;;
19329;SDS011;9799;48.214;16.388;2023-06-26T13:28:31;7.07;;;5.53;;
19329;SDS011;9799;48.214;16.388;2023-06-26T13:31:52;6.38;;;5.35;;
19329;SDS011;9799;48.214;16.388;2023-06-26T13:35:17;6.38;;;5.03;;
19329;SDS011;9799;48.214;16.388;2023-06-26T13:38:39;6.60;;;5.82;;
19329;SDS011;9799;48.214;16.388;2023-06-26T13:42:00;5.78;;;5.18;;
19329;SDS011;9799;48.214;16.388;2023-06-26T13:45:21;6.45;;;5.85;;
19329;SDS011;9799;48.214;16.388;2023-06-26T13:48:42;6.82;;;5.80;;
19329;SDS011;9799;48.214;16.388;2023-06-26T13:52:05;10.07;;;5.88;;
19329;SDS011;9799;48.214;16.388;2023-06-26T13:55:27;7.25;;;6.55;;
19329;SDS011;9799;48.214;16.388;2023-06-26T13:58:49;6.88;;;6.28;;
19329;SDS011;9799;48.214;16.388;2023-06-26T14:02:10;8.18;;;6.47;;
19329;SDS011;9799;48.214;16.388;2023-06-26T14:05:31;7.95;;;6.25;;
19329;SDS011;9799;48.214;16.388;2023-06-26T14:08:53;7.10;;;6.40;;
19329;SDS011;9799;48.214;16.388;2023-06-26T14:12:15;7.07;;;6.03;;
19329;SDS011;9799;48.214;16.388;2023-06-26T14:15:36;7.13;;;6.38;;
19329;SDS011;9799;48.214;16.388;2023-06-26T14:18:59;7.97;;;6.75;;
19329;SDS011;9799;48.214;16.388;2023-06-26T14:22:21;10.95;;;7.15;;
19329;SDS011;9799;48.214;16.388;2023-06-26T14:25:43;7.57;;;6.88;;
19329;SDS011;9799;48.214;16.388;2023-06-26T14:29:04;7.20;;;6.50;;
19329;SDS011;9799;48.214;16.388;2023-06-26T14:32:27;7.18;;;6.47;;
19329;SDS011;9799;48.214;16.388;2023-06-26T14:35:48;7.18;;;6.57;;
19329;SDS011;9799;48.214;16.388;2023-06-26T14:39:09;7.28;;;6.60;;
19329;SDS011;9799;48.214;16.388;2023-06-26T14:42:32;6.93;;;6.32;;
19329;SDS011;9799;48.214;16.388;2023-06-26T14:45:53;7.05;;;6.45;;
19329;SDS011;9799;48.214;16.388;2023-06-26T14:49:14;7.80;;;6.97;;
19329;SDS011;9799;48.214;16.388;2023-06-26T14:52:35;7.68;;;6.97;;
19329;SDS011;9799;48.214;16.388;2023-06-26T14:55:56;7.40;;;6.70;;
19329;SDS011;9799;48.214;16.388;2023-06-26T14:59:19;9.93;;;7.22;;
19329;SDS011;9799;48.214;16.388;2023-06-26T15:02:40;7.95;;;7.30;;
19329;SDS011;9799;48.214;16.388;2023-06-26T15:06:02;8.35;;;7.55;;
19329;SDS011;9799;48.214;16.388;2023-06-26T15:09:23;8.75;;;7.95;;
19329;SDS011;9799;48.214;16.388;2023-06-26T15:12:44;8.80;;;8.00;;
19329;SDS011;9799;48.214;16.388;2023-06-26T15:16:06;9.48;;;7.82;;
19329;SDS011;9799;48.214;16.388;2023-06-26T15:19:28;8.98;;;8.13;;
19329;SDS011;9799;48.214;16.388;2023-06-26T15:22:49;8.30;;;7.60;;
19329;SDS011;9799;48.214;16.388;2023-06-26T15:26:10;10.20;;;7.88;;
19329;SDS011;9799;48.214;16.388;2023-06-26T15:29:31;9.35;;;8.48;;
19329;SDS011;9799;48.214;16.388;2023-06-26T15:32:54;8.80;;;7.95;;
19329;SDS011;9799;48.214;16.388;2023-06-26T15:36:15;8.52;;;7.82;;
19329;SDS011;9799;48.214;16.388;2023-06-26T15:39:37;9.73;;;8.70;;
19329;SDS011;9799;48.214;16.388;2023-06-26T15:42:58;8.95;;;8.13;;
19329;SDS011;9799;48.214;16.388;2023-06-26T15:46:20;8.82;;;8.02;;
19329;SDS011;9799;48.214;16.388;2023-06-26T15:49:42;9.80;;;8.95;;
19329;SDS011;9799;48.214;16.388;2023-06-26T15:53:04;9.13;;;8.23;;
19329;SDS011;9799;48.214;16.388;2023-06-26T15:56:25;8.98;;;8.07;;
19329;SDS011;9799;48.214;16.388;2023-06-26T15:59:47;11.10;;;9.10;;
19329;SDS011;9799;48.214;16.388;2023-06-26T16:03:08;10.60;;;8.77;;
19329;SDS011;9799;48.214;16.388;2023-06-26T16:06:31;9.25;;;8.32;;
19329;SDS011;9799;48.214;16.388;2023-06-26T16:09:52;8.85;;;8.05;;
19329;SDS011;9799;48.214;16.388;2023-06-26T16:13:13;9.30;;;8.50;;
19329;SDS011;9799;48.214;16.388;2023-06-26T16:16:37;8.13;;;7.35;;
19329;SDS011;9799;48.214;16.388;2023-06-26T16:19:59;8.45;;;7.65;;
19329;SDS011;9799;48.214;16.388;2023-06-26T16:23:22;9.25;;;8.43;;
19329;SDS011;9799;48.214;16.388;2023-06-26T16:26:43;9.52;;;8.63;;
19329;SDS011;9799;48.214;16.388;2023-06-26T16:30:04;9.02;;;8.23;;
19329;SDS011;9799;48.214;16.388;2023-06-26T16:33:27;8.48;;;7.75;;
19329;SDS011;9799;48.214;16.388;2023-06-26T16:36:48;8.70;;;7.95;;
19329;SDS011;9799;48.214;16.388;2023-06-26T16:40:12;11.10;;;8.43;;
19329;SDS011;9799;48.214;16.388;2023-06-26T16:43:33;9.52;;;8.73;;
19329;SDS011;9799;48.214;16.388;2023-06-26T16:46:55;8.85;;;8.05;;
19329;SDS011;9799;48.214;16.388;2023-06-26T16:50:17;9.15;;;8.25;;
19329;SDS011;9799;48.214;16.388;2023-06-26T16:53:38;9.05;;;8.27;;
19329;SDS011;9799;48.214;16.388;2023-06-26T16:57:01;9.15;;;8.35;;
19329;SDS011;9799;48.214;16.388;2023-06-26T17:00:22;9.02;;;8.23;;
19329;SDS011;9799;48.214;16.388;2023-06-26T17:03:43;8.93;;;8.13;;
19329;SDS011;9799;48.214;16.388;2023-06-26T17:07:05;8.50;;;7.60;;
19329;SDS011;9799;48.214;16.388;2023-06-26T17:10:26;9.20;;;8.30;;
19329;SDS011;9799;48.214;16.388;2023-06-26T17:13:49;9.52;;;8.35;;
19329;SDS011;9799;48.214;16.388;2023-06-26T17:17:10;10.32;;;8.48;;
19329;SDS011;9799;48.214;16.388;2023-06-26T17:20:35;8.77;;;7.97;;
19329;SDS011;9799;48.214;16.388;2023-06-26T17:23:56;10.60;;;7.80;;
19329;SDS011;9799;48.214;16.388;2023-06-26T17:27:17;12.43;;;8.23;;
19329;SDS011;9799;48.214;16.388;2023-06-26T17:30:43;8.50;;;7.70;;
19329;SDS011;9799;48.214;16.388;2023-06-26T17:34:05;9.35;;;8.45;;
19329;SDS011;9799;48.214;16.388;2023-06-26T17:37:26;9.20;;;8.35;;
19329;SDS011;9799;48.214;16.388;2023-06-26T17:40:47;9.75;;;8.85;;
19329;SDS011;9799;48.214;16.388;2023-06-26T17:44:08;9.70;;;8.70;;
19329;SDS011;9799;48.214;16.388;2023-06-26T17:47:31;9.63;;;8.73;;
19329;SDS011;9799;48.214;16.388;2023-06-26T17:50:52;8.95;;;8.07;;
19329;SDS011;9799;48.214;16.388;2023-06-26T17:54:13;8.77;;;7.97;;
19329;SDS011;9799;48.214;16.388;2023-06-26T17:57:34;9.15;;;8.25;;
19329;SDS011;9799;48.214;16.388;2023-06-26T18:00:58;13.00;;;9.50;;
19329;SDS011;9799;48.214;16.388;2023-06-26T18:04:20;8.55;;;7.72;;
19329;SDS011;9799;48.214;16.388;2023-06-26T18:07:42;9.98;;;8.70;;
19329;SDS011;9799;48.214;16.388;2023-06-26T18:11:03;9.48;;;8.60;;
19329;SDS011;9799;48.214;16.388;2023-06-26T18:14:24;9.82;;;8.82;;
19329;SDS011;9799;48.214;16.388;2023-06-26T18:17:45;8.10;;;7.32;;
19329;SDS011;9799;48.214;16.388;2023-06-26T18:21:08;7.53;;;6.80;;
19329;SDS011;9799;48.214;16.388;2023-06-26T18:24:29;8.88;;;6.30;;
19329;SDS011;9799;48.214;16.388;2023-06-26T18:27:51;8.60;;;7.15;;
19329;SDS011;9799;48.214;16.388;2023-06-26T18:31:12;7.13;;;6.43;;
19329;SDS011;9799;48.214;16.388;2023-06-26T18:34:34;8.48;;;7.47;;
19329;SDS011;9799;48.214;16.388;2023-06-26T18:37:56;19.38;;;7.63;;
19329;SDS011;9799;48.214;16.388;2023-06-26T18:41:18;7.18;;;6.47;;
19329;SDS011;9799;48.214;16.388;2023-06-26T18:44:40;8.05;;;7.15;;
19329;SDS011;9799;48.214;16.388;2023-06-26T18:48:01;8.90;;;8.10;;
19329;SDS011;9799;48.214;16.388;2023-06-26T18:51:24;7.82;;;7.05;;
19329;SDS011;9799;48.214;16.388;2023-06-26T18:54:46;7.35;;;6.65;;
19329;SDS011;9799;48.214;16.388;2023-06-26T18:58:07;7.03;;;6.35;;
19329;SDS011;9799;48.214;16.388;2023-06-26T19:01:29;6.97;;;5.72;;
19329;SDS011;9799;48.214;16.388;2023-06-26T19:04:50;6.65;;;6.07;;
19329;SDS011;9799;48.214;16.388;2023-06-26T19:08:12;7.82;;;6.43;;
19329;SDS011;9799;48.214;16.388;2023-06-26T19:11:35;7.72;;;7.03;;
19329;SDS011;9799;48.214;16.388;2023-06-26T19:14:56;7.07;;;6.38;;
19329;SDS011;9799;48.214;16.388;2023-06-26T19:18:17;6.78;;;6.07;;
19329;SDS011;9799;48.214;16.388;2023-06-26T19:21:39;8.38;;;6.65;;
19329;SDS011;9799;48.214;16.388;2023-06-26T19:25:01;8.70;;;6.20;;
19329;SDS011;9799;48.214;16.388;2023-06-26T19:28:24;8.15;;;6.95;;
19329;SDS011;9799;48.214;16.388;2023-06-26T19:31:46;6.55;;;5.95;;
19329;SDS011;9799;48.214;16.388;2023-06-26T19:35:09;6.35;;;5.75;;
19329;SDS011;9799;48.214;16.388;2023-06-26T19:38:30;8.70;;;6.28;;
19329;SDS011;9799;48.214;16.388;2023-06-26T19:41:52;6.22;;;5.63;;
19329;SDS011;9799;48.214;16.388;2023-06-26T19:45:14;6.82;;;6.22;;
19329;SDS011;9799;48.214;16.388;2023-06-26T19:48:35;6.88;;;5.88;;
19329;SDS011;9799;48.214;16.388;2023-06-26T19:51:56;8.68;;;6.07;;
19329;SDS011;9799;48.214;16.388;2023-06-26T19:55:18;11.77;;;10.50;;
19329;SDS011;9799;48.214;16.388;2023-06-26T19:58:40;8.27;;;7.47;;
19329;SDS011;9799;48.214;16.388;2023-06-26T20:02:03;7.97;;;6.60;;
19329;SDS011;9799;48.214;16.388;2023-06-26T20:05:24;8.75;;;6.30;;
19329;SDS011;9799;48.214;16.388;2023-06-26T20:08:46;13.75;;;6.03;;
19329;SDS011;9799;48.214;16.388;2023-06-26T20:12:08;8.27;;;6.45;;
19329;SDS011;9799;48.214;16.388;2023-06-26T20:15:29;6.38;;;5.85;;